Time,TemperatureF,DewpointF,PressureIn,WindDirection,WindDirectionDegrees,WindSpeedMPH,WindSpeedGustMPH,Humidity,HourlyPrecipIn,Conditions,Clouds,dailyrainin,SoftwareType,DateUTC
2013-03-01 00:01:00,64.0,45.0,30.36,SW,223,1.0,-999.0,51,-99.99,,,-99.99,,2013-03-01 08:01:00,
2013-03-01 00:21:00,63.0,45.0,30.36,SW,223,0.0,-999.0,52,-99.99,,,-99.99,,2013-03-01 08:21:00,
2013-03-01 00:32:00,63.0,45.0,30.36,SW,223,0.0,-999.0,52,-99.99,,,-99.99,,2013-03-01 08:32:00,
2013-03-01 00:52:00,63.0,46.0,30.37,SW,223,0.0,-999.0,53,-99.99,,,-99.99,,2013-03-01 08:52:00,
2013-03-01 01:01:00,62.0,46.0,30.37,SW,223,0.0,-999.0,55,-99.99,,,-99.99,,2013-03-01 09:01:00,
2013-03-01 01:31:00,62.0,45.0,30.37,SW,223,0.0,-999.0,53,-99.99,,,-99.99,,2013-03-01 09:31:00,
2013-03-01 01:52:00,61.0,45.0,30.37,SW,223,0.0,-999.0,55,-99.99,,,-99.99,,2013-03-01 09:52:00,
2013-03-01 02:01:00,60.0,46.0,30.38,SW,223,0.0,-999.0,60,-99.99,,,-99.99,,2013-03-01 10:01:00,
2013-03-01 02:21:00,58.0,45.0,30.38,NNE,29,3.0,-999.0,63,-99.99,,,-99.99,,2013-03-01 10:21:00,
2013-03-01 02:31:00,59.0,45.0,30.37,NNE,29,3.0,-999.0,60,-99.99,,,-99.99,,2013-03-01 10:31:00,
2013-03-01 02:41:00,59.0,45.0,30.37,NNE,29,3.0,-999.0,60,-99.99,,,-99.99,,2013-03-01 10:41:00,
2013-03-01 02:52:00,60.0,45.0,30.36,NNE,28,0.0,-999.0,57,-99.99,,,-99.99,,2013-03-01 10:52:00,
2013-03-01 03:01:00,61.0,45.0,30.36,NNE,28,0.0,-999.0,56,-99.99,,,-99.99,,2013-03-01 11:01:00,
2013-03-01 03:22:00,60.0,44.0,30.35,NNE,28,0.0,-999.0,56,-99.99,,,-99.99,,2013-03-01 11:22:00,
2013-03-01 03:52:00,60.0,45.0,30.35,NNE,28,2.0,-999.0,57,-99.99,,,-99.99,,2013-03-01 11:52:00,
2013-03-01 04:01:00,60.0,42.0,30.33,NNE,20,4.0,-999.0,51,-99.99,,,-99.99,,2013-03-01 12:01:00,
2013-03-01 04:21:00,63.0,43.0,30.32,North,5,5.0,-999.0,48,-99.99,,,-99.99,,2013-03-01 12:21:00,
2013-03-01 04:32:00,63.0,42.0,30.32,NE,36,3.0,-999.0,47,-99.99,,,-99.99,,2013-03-01 12:32:00,
2013-03-01 04:52:00,63.0,43.0,30.32,SW,228,2.0,-999.0,48,-99.99,,,-99.99,,2013-03-01 12:52:00,
2013-03-01 05:01:00,63.0,43.0,30.32,NNE,28,2.0,-999.0,48,-99.99,,,-99.99,,2013-03-01 13:01:00,
2013-03-01 05:21:00,62.0,43.0,30.32,NE,35,1.0,-999.0,50,-99.99,,,-99.99,,2013-03-01 13:21:00,
2013-03-01 05:32:00,61.0,44.0,30.33,ESE,109,2.0,-999.0,53,-99.99,,,-99.99,,2013-03-01 13:32:00,
2013-03-01 05:51:00,61.0,44.0,30.33,East,80,3.0,-999.0,54,-99.99,,,-99.99,,2013-03-01 13:51:00,
2013-03-01 06:01:00,60.0,43.0,30.33,East,80,0.0,-999.0,54,-99.99,,,-99.99,,2013-03-01 14:01:00,
2013-03-01 06:21:00,60.0,43.0,30.33,East,80,0.0,-999.0,54,-99.99,,,-99.99,,2013-03-01 14:21:00,
2013-03-01 06:32:00,60.0,43.0,30.33,East,80,0.0,-999.0,54,-99.99,,,-99.99,,2013-03-01 14:32:00,
2013-03-01 06:41:00,60.0,43.0,30.33,East,80,0.0,-999.0,54,-99.99,,,-99.99,,2013-03-01 14:41:00,
2013-03-01 06:52:00,60.0,44.0,30.33,East,80,2.0,-999.0,55,-99.99,,,-99.99,,2013-03-01 14:52:00,
2013-03-01 07:01:00,60.0,44.0,30.33,East,80,1.0,-999.0,55,-99.99,,,-99.99,,2013-03-01 15:01:00,
2013-03-01 07:11:00,61.0,44.0,30.33,East,80,0.0,-999.0,54,-99.99,,,-99.99,,2013-03-01 15:11:00,
2013-03-01 07:31:00,60.0,44.0,30.32,ENE,71,2.0,-999.0,56,-99.99,,,-99.99,,2013-03-01 15:31:00,
2013-03-01 07:51:00,60.0,43.0,30.32,ENE,69,1.0,-999.0,54,-99.99,,,-99.99,,2013-03-01 15:51:00,
2013-03-01 08:01:00,62.0,44.0,30.32,ENE,66,0.0,-999.0,52,-99.99,,,-99.99,,2013-03-01 16:01:00,
2013-03-01 08:31:00,62.0,46.0,30.33,ENE,67,0.0,-999.0,56,-99.99,,,-99.99,,2013-03-01 16:31:00,
2013-03-01 08:51:00,63.0,45.0,30.33,ENE,67,0.0,-999.0,52,-99.99,,,-99.99,,2013-03-01 16:51:00,
2013-03-01 09:01:00,65.0,45.0,30.32,ENE,67,0.0,-999.0,49,-99.99,,,-99.99,,2013-03-01 17:01:00,
2013-03-01 09:21:00,65.0,45.0,30.32,ENE,69,0.0,-999.0,49,-99.99,,,-99.99,,2013-03-01 17:21:00,
2013-03-01 09:31:00,65.0,46.0,30.32,ENE,70,1.0,-999.0,50,-99.99,,,-99.99,,2013-03-01 17:31:00,
2013-03-01 09:52:00,65.0,47.0,30.32,SSE,154,0.0,-999.0,52,-99.99,,,-99.99,,2013-03-01 17:52:00,
2013-03-01 10:01:00,64.0,44.0,30.32,SSW,205,1.0,-999.0,49,-99.99,,,-99.99,,2013-03-01 18:01:00,
2013-03-01 10:11:00,64.0,44.0,30.32,SSW,205,1.0,-999.0,49,-99.99,,,-99.99,,2013-03-01 18:11:00,
2013-03-01 10:21:00,65.0,50.0,30.32,SSW,207,0.0,-999.0,59,-99.99,,,-99.99,,2013-03-01 18:21:00,
2013-03-01 10:31:00,64.0,48.0,30.31,SSW,207,1.0,-999.0,56,-99.99,,,-99.99,,2013-03-01 18:31:00,
2013-03-01 10:41:00,64.0,48.0,30.31,SSW,207,1.0,-999.0,56,-99.99,,,-99.99,,2013-03-01 18:41:00,
2013-03-01 10:52:00,64.0,47.0,30.31,SW,217,1.0,-999.0,55,-99.99,,,-99.99,,2013-03-01 18:52:00,
2013-03-01 11:01:00,64.0,49.0,30.30,SSW,205,1.0,-999.0,58,-99.99,,,-99.99,,2013-03-01 19:01:00,
2013-03-01 11:11:00,64.0,49.0,30.30,SSW,205,1.0,-999.0,58,-99.99,,,-99.99,,2013-03-01 19:11:00,
2013-03-01 11:21:00,65.0,46.0,30.30,SSW,207,1.0,-999.0,51,-99.99,,,-99.99,,2013-03-01 19:21:00,
2013-03-01 11:31:00,64.0,47.0,30.29,SSW,208,2.0,-999.0,53,-99.99,,,-99.99,,2013-03-01 19:31:00,
2013-03-01 11:41:00,64.0,47.0,30.29,SSW,208,2.0,-999.0,53,-99.99,,,-99.99,,2013-03-01 19:41:00,
2013-03-01 11:51:00,66.0,48.0,30.29,SSW,208,2.0,-999.0,53,-99.99,,,-99.99,,2013-03-01 19:51:00,
2013-03-01 12:01:00,66.0,48.0,30.28,SW,216,2.0,-999.0,52,-99.99,,,-99.99,,2013-03-01 20:01:00,
2013-03-01 12:11:00,66.0,48.0,30.28,SW,216,2.0,-999.0,52,-99.99,,,-99.99,,2013-03-01 20:11:00,
2013-03-01 12:21:00,68.0,48.0,30.28,SW,217,1.0,-999.0,48,-99.99,,,-99.99,,2013-03-01 20:21:00,
2013-03-01 12:31:00,69.0,48.0,30.27,SW,215,1.0,-999.0,48,-99.99,,,-99.99,,2013-03-01 20:31:00,
2013-03-01 12:41:00,69.0,48.0,30.27,SW,215,1.0,-999.0,48,-99.99,,,-99.99,,2013-03-01 20:41:00,
2013-03-01 12:52:00,69.0,50.0,30.26,SW,227,2.0,-999.0,51,-99.99,,,-99.99,,2013-03-01 20:52:00,
2013-03-01 13:01:00,66.0,49.0,30.25,South,172,1.0,-999.0,54,-99.99,,,-99.99,,2013-03-01 21:01:00,
2013-03-01 13:11:00,66.0,48.0,30.24,South,184,1.0,-999.0,52,-99.99,,,-99.99,,2013-03-01 21:11:00,
2013-03-01 13:21:00,66.0,48.0,30.24,South,184,1.0,-999.0,52,-99.99,,,-99.99,,2013-03-01 21:21:00,
2013-03-01 13:31:00,66.0,49.0,30.24,SE,140,1.0,-999.0,55,-99.99,,,-99.99,,2013-03-01 21:31:00,
2013-03-01 13:41:00,66.0,49.0,30.24,SE,140,1.0,-999.0,55,-99.99,,,-99.99,,2013-03-01 21:41:00,
2013-03-01 13:51:00,67.0,49.0,30.23,SSE,166,1.0,-999.0,52,-99.99,,,-99.99,,2013-03-01 21:51:00,
2013-03-01 14:01:00,68.0,48.0,30.22,SSE,166,1.0,-999.0,49,-99.99,,,-99.99,,2013-03-01 22:01:00,
2013-03-01 14:11:00,69.0,48.0,30.21,SSE,163,0.0,-999.0,48,-99.99,,,-99.99,,2013-03-01 22:11:00,
2013-03-01 14:21:00,69.0,48.0,30.21,SSE,163,0.0,-999.0,48,-99.99,,,-99.99,,2013-03-01 22:21:00,
2013-03-01 14:31:00,71.0,50.0,30.21,SSE,164,0.0,-999.0,48,-99.99,,,-99.99,,2013-03-01 22:31:00,
2013-03-01 14:41:00,71.0,50.0,30.21,SSE,164,0.0,-999.0,48,-99.99,,,-99.99,,2013-03-01 22:41:00,
2013-03-01 14:51:00,73.0,48.0,30.21,SSE,166,0.0,-999.0,41,-99.99,,,-99.99,,2013-03-01 22:51:00,
2013-03-01 15:01:00,73.0,49.0,30.20,SSW,200,2.0,-999.0,42,-99.99,,,-99.99,,2013-03-01 23:01:00,
2013-03-01 15:11:00,73.0,49.0,30.20,SSW,200,2.0,-999.0,42,-99.99,,,-99.99,,2013-03-01 23:11:00,
2013-03-01 15:21:00,72.0,51.0,30.20,SSW,196,0.0,-999.0,47,-99.99,,,-99.99,,2013-03-01 23:21:00,
2013-03-01 15:31:00,70.0,48.0,30.20,South,182,1.0,-999.0,46,-99.99,,,-99.99,,2013-03-01 23:31:00,
2013-03-01 15:41:00,70.0,48.0,30.20,South,182,1.0,-999.0,46,-99.99,,,-99.99,,2013-03-01 23:41:00,
2013-03-01 15:52:00,69.0,48.0,30.21,South,182,0.0,-999.0,47,-99.99,,,-99.99,,2013-03-01 23:52:00,
2013-03-01 16:01:00,69.0,48.0,30.21,South,181,0.0,-999.0,48,-99.99,,,-99.99,,2013-03-02 00:01:00,
2013-03-01 16:11:00,69.0,48.0,30.21,South,181,0.0,-999.0,48,-99.99,,,-99.99,,2013-03-02 00:11:00,
2013-03-01 16:21:00,70.0,50.0,30.20,South,181,0.0,-999.0,49,-99.99,,,-99.99,,2013-03-02 00:21:00,
2013-03-01 16:31:00,70.0,50.0,30.20,South,181,1.0,-999.0,49,-99.99,,,-99.99,,2013-03-02 00:31:00,
2013-03-01 16:41:00,70.0,50.0,30.20,South,181,1.0,-999.0,49,-99.99,,,-99.99,,2013-03-02 00:41:00,
2013-03-01 16:52:00,71.0,47.0,30.19,South,171,1.0,-999.0,43,-99.99,,,-99.99,,2013-03-02 00:52:00,
2013-03-01 17:01:00,72.0,49.0,30.19,SSE,165,0.0,-999.0,45,-99.99,,,-99.99,,2013-03-02 01:01:00,
2013-03-01 17:11:00,72.0,49.0,30.19,SSE,165,0.0,-999.0,45,-99.99,,,-99.99,,2013-03-02 01:11:00,
2013-03-01 17:21:00,72.0,47.0,30.19,SSE,166,0.0,-999.0,41,-99.99,,,-99.99,,2013-03-02 01:21:00,
2013-03-01 17:31:00,73.0,50.0,30.19,SSE,167,0.0,-999.0,44,-99.99,,,-99.99,,2013-03-02 01:31:00,
2013-03-01 17:41:00,73.0,50.0,30.19,SSE,167,0.0,-999.0,44,-99.99,,,-99.99,,2013-03-02 01:41:00,
2013-03-01 17:51:00,69.0,48.0,30.20,South,183,0.0,-999.0,47,-99.99,,,-99.99,,2013-03-02 01:51:00,
2013-03-01 18:01:00,65.0,48.0,30.20,WSW,257,0.0,-999.0,54,-99.99,,,-99.99,,2013-03-02 02:01:00,
2013-03-01 18:11:00,65.0,48.0,30.20,WSW,257,0.0,-999.0,54,-99.99,,,-99.99,,2013-03-02 02:11:00,
2013-03-01 18:21:00,65.0,48.0,30.20,WSW,257,0.0,-999.0,54,-99.99,,,-99.99,,2013-03-02 02:21:00,
2013-03-01 18:31:00,66.0,48.0,30.21,West,271,0.0,-999.0,52,-99.99,,,-99.99,,2013-03-02 02:31:00,
2013-03-01 18:41:00,66.0,48.0,30.21,West,271,0.0,-999.0,52,-99.99,,,-99.99,,2013-03-02 02:41:00,
2013-03-01 18:52:00,66.0,45.0,30.21,West,271,0.0,-999.0,47,-99.99,,,-99.99,,2013-03-02 02:52:00,
2013-03-01 19:01:00,67.0,44.0,30.21,West,271,0.0,-999.0,44,-99.99,,,-99.99,,2013-03-02 03:01:00,
2013-03-01 19:21:00,67.0,43.0,30.21,WNW,285,2.0,-999.0,42,-99.99,,,-99.99,,2013-03-02 03:21:00,
2013-03-01 19:32:00,67.0,42.0,30.21,WNW,285,1.0,-999.0,40,-99.99,,,-99.99,,2013-03-02 03:32:00,
2013-03-01 19:52:00,69.0,42.0,30.21,WNW,285,0.0,-999.0,38,-99.99,,,-99.99,,2013-03-02 03:52:00,
2013-03-01 20:21:00,69.0,41.0,30.21,WNW,285,0.0,-999.0,36,-99.99,,,-99.99,,2013-03-02 04:21:00,
2013-03-01 20:32:00,68.0,40.0,30.21,WNW,285,0.0,-999.0,36,-99.99,,,-99.99,,2013-03-02 04:32:00,
2013-03-01 20:51:00,69.0,42.0,30.21,WNW,285,1.0,-999.0,37,-99.99,,,-99.99,,2013-03-02 04:51:00,
2013-03-01 21:01:00,69.0,42.0,30.21,WNW,285,0.0,-999.0,37,-99.99,,,-99.99,,2013-03-02 05:01:00,
2013-03-01 21:22:00,68.0,39.0,30.21,WNW,285,0.0,-999.0,35,-99.99,,,-99.99,,2013-03-02 05:22:00,
2013-03-01 21:31:00,68.0,40.0,30.21,WNW,285,0.0,-999.0,36,-99.99,,,-99.99,,2013-03-02 05:31:00,
2013-03-01 21:52:00,68.0,41.0,30.22,WNW,285,0.0,-999.0,37,-99.99,,,-99.99,,2013-03-02 05:52:00,
2013-03-01 22:01:00,68.0,37.0,30.22,WNW,285,0.0,-999.0,32,-99.99,,,-99.99,,2013-03-02 06:01:00,
2013-03-01 22:21:00,68.0,33.0,30.22,WNW,285,1.0,-999.0,27,-99.99,,,-99.99,,2013-03-02 06:21:00,
2013-03-01 22:31:00,69.0,32.0,30.21,WNW,285,0.0,-999.0,25,-99.99,,,-99.99,,2013-03-02 06:31:00,
2013-03-01 22:51:00,69.0,31.0,30.21,WNW,285,0.0,-999.0,24,-99.99,,,-99.99,,2013-03-02 06:51:00,
2013-03-01 23:01:00,68.0,30.0,30.20,NNW,343,2.0,-999.0,24,-99.99,,,-99.99,,2013-03-02 07:01:00,
2013-03-01 23:11:00,68.0,28.0,30.20,North,11,2.0,-999.0,22,-99.99,,,-99.99,,2013-03-02 07:11:00,
2013-03-01 23:21:00,68.0,28.0,30.20,North,11,2.0,-999.0,22,-99.99,,,-99.99,,2013-03-02 07:21:00,
2013-03-01 23:32:00,69.0,29.0,30.20,NE,55,2.0,-999.0,22,-99.99,,,-99.99,,2013-03-02 07:32:00,
2013-03-01 23:51:00,69.0,27.0,30.20,ENE,57,1.0,-999.0,21,-99.99,,,-99.99,,2013-03-02 07:51:00,